createdAt,value
2018-09-14T00:01:02.163Z,15.40
2018-09-14T00:03:07.688Z,15.30
2018-09-14T00:05:15.624Z,15.30
2018-09-14T00:07:27.271Z,15.30
2018-09-14T00:09:33.514Z,15.30
2018-09-14T00:11:40.319Z,15.30
2018-09-14T00:13:44.748Z,15.30
2018-09-14T00:15:52.449Z,15.30
2018-09-14T00:18:00.616Z,15.20
2018-09-14T00:20:05.728Z,15.20
2018-09-14T00:22:16.467Z,15.20
2018-09-14T00:24:23.768Z,15.20
2018-09-14T00:26:30.442Z,15.20
2018-09-14T00:28:37.020Z,15.20
2018-09-14T00:30:46.717Z,15.20
2018-09-14T00:32:51.267Z,15.10
2018-09-14T00:34:58.927Z,15.10
2018-09-14T00:37:05.212Z,15.10
2018-09-14T00:39:13.039Z,15.10
2018-09-14T00:41:17.718Z,15.10
2018-09-14T00:43:26.246Z,15.10
2018-09-14T00:45:33.711Z,15.10
2018-09-14T00:47:40.751Z,15.00
2018-09-14T00:49:47.350Z,15.00
2018-09-14T00:51:53.038Z,15.00
2018-09-14T00:54:00.809Z,15.00
2018-09-14T00:56:05.282Z,14.90
2018-09-14T00:58:12.602Z,14.90
2018-09-14T01:00:17.760Z,14.90
2018-09-14T01:02:25.423Z,14.90
2018-09-14T01:04:29.880Z,14.80
2018-09-14T01:06:38.034Z,14.80
2018-09-14T01:08:42.447Z,14.80
2018-09-14T01:10:51.829Z,14.80
2018-09-14T01:12:57.229Z,14.70
2018-09-14T01:15:02.483Z,14.70
2018-09-14T01:17:10.661Z,14.70
2018-09-14T01:19:17.256Z,14.70
2018-09-14T01:21:21.865Z,14.70
2018-09-14T01:23:30.254Z,14.60
2018-09-14T01:25:34.786Z,14.60
2018-09-14T01:27:41.066Z,14.60
2018-09-14T01:29:45.552Z,14.60
2018-09-14T01:31:54.002Z,14.60
2018-09-14T01:34:01.452Z,14.60
2018-09-14T01:36:11.422Z,14.60
2018-09-14T01:38:15.931Z,14.50
2018-09-14T01:40:22.934Z,14.50
2018-09-14T01:42:31.048Z,14.50
2018-09-14T01:44:39.617Z,14.40
2018-09-14T01:46:45.888Z,14.50
2018-09-14T01:48:54.223Z,14.40
2018-09-14T01:51:01.456Z,14.40
2018-09-14T01:53:06.235Z,14.40
2018-09-14T01:55:13.623Z,14.40
2018-09-14T01:57:23.260Z,14.40
2018-09-14T01:59:27.852Z,14.30
2018-09-14T02:01:34.023Z,14.30
2018-09-14T02:03:41.096Z,14.30
2018-09-14T02:05:45.703Z,14.30
2018-09-14T02:07:53.678Z,14.30
2018-09-14T02:10:00.362Z,14.20
2018-09-14T02:12:05.689Z,14.20
2018-09-14T02:14:13.996Z,14.20
2018-09-14T02:16:22.086Z,14.20
2018-09-14T02:18:26.857Z,14.20
2018-09-14T02:20:33.715Z,14.10
2018-09-14T02:22:41.310Z,14.10
2018-09-14T02:24:47.915Z,14.10
2018-09-14T02:26:55.514Z,14.10
2018-09-14T02:29:01.933Z,14.10
2018-09-14T02:31:11.565Z,14.00
2018-09-14T02:33:19.701Z,14.00
2018-09-14T02:35:27.575Z,14.00
2018-09-14T02:37:32.125Z,13.90
2018-09-14T02:41:40.034Z,13.90
2018-09-14T02:43:44.439Z,13.90
2018-09-14T02:45:49.014Z,13.80
2018-09-14T02:47:58.034Z,13.80
2018-09-14T02:50:04.859Z,13.80
2018-09-14T02:52:09.456Z,13.80
2018-09-14T02:54:13.959Z,13.70
2018-09-14T02:56:22.461Z,13.70
2018-09-14T02:58:27.082Z,13.70
2018-09-14T03:00:35.800Z,13.70
2018-09-14T03:02:43.924Z,13.70
2018-09-14T03:04:53.090Z,13.70
2018-09-14T03:06:59.106Z,13.70
2018-09-14T03:09:05.098Z,13.60
2018-09-14T03:11:13.434Z,13.60
2018-09-14T03:13:21.227Z,13.60
2018-09-14T03:15:29.756Z,13.60
2018-09-14T03:17:38.457Z,13.60
2018-09-14T03:19:43.026Z,13.60
2018-09-14T03:21:51.724Z,13.60
2018-09-14T03:23:59.011Z,13.60
2018-09-14T03:26:06.668Z,13.60
2018-09-14T03:28:14.479Z,13.50
2018-09-14T03:30:23.883Z,13.50
2018-09-14T03:32:32.601Z,13.50
2018-09-14T03:34:40.853Z,13.50
2018-09-14T03:36:46.675Z,13.50
2018-09-14T03:38:54.488Z,13.50
2018-09-14T03:41:01.853Z,13.50
2018-09-14T03:43:09.222Z,13.50
2018-09-14T03:45:15.405Z,13.50
2018-09-14T03:47:19.860Z,13.50
2018-09-14T03:49:28.357Z,13.40
2018-09-14T03:51:38.151Z,13.40
2018-09-14T03:53:43.668Z,13.40
2018-09-14T03:55:49.885Z,13.40
2018-09-14T03:57:57.243Z,13.40
2018-09-14T04:00:01.707Z,13.40
2018-09-14T04:02:10.911Z,13.30
2018-09-14T04:04:18.262Z,13.30
2018-09-14T04:06:28.222Z,13.30
2018-09-14T04:08:35.883Z,13.30
2018-09-14T04:10:42.200Z,13.30
2018-09-14T04:12:50.194Z,13.20
2018-09-14T04:14:59.046Z,13.20
2018-09-14T04:17:05.961Z,13.20
2018-09-14T04:19:13.838Z,13.20
2018-09-14T04:21:21.124Z,13.20
2018-09-14T04:23:29.221Z,13.20
2018-09-14T04:25:36.731Z,13.20
2018-09-14T04:27:43.962Z,13.10
2018-09-14T04:29:52.442Z,13.10
2018-09-14T04:32:00.377Z,13.10
2018-09-14T04:34:11.251Z,13.10
2018-09-14T04:36:21.298Z,13.00
2018-09-14T04:38:31.363Z,13.00
2018-09-14T04:40:39.693Z,13.00
2018-09-14T04:42:48.001Z,13.00
2018-09-14T04:44:52.856Z,13.00
2018-09-14T04:47:01.340Z,12.90
2018-09-14T04:49:08.975Z,12.90
2018-09-14T04:51:13.991Z,12.90
2018-09-14T04:53:18.443Z,12.90
2018-09-14T04:55:23.966Z,12.90
2018-09-14T04:57:31.751Z,12.90
2018-09-14T04:59:37.063Z,12.80
2018-09-14T05:01:44.561Z,12.80
2018-09-14T05:03:49.057Z,12.80
2018-09-14T05:05:54.944Z,12.80
2018-09-14T05:08:01.358Z,12.70
2018-09-14T05:10:06.655Z,12.70
2018-09-14T05:12:13.578Z,12.70
2018-09-14T05:14:20.090Z,12.70
2018-09-14T05:16:24.592Z,12.70
2018-09-14T05:18:32.207Z,12.70
2018-09-14T05:20:37.388Z,12.60
2018-09-14T05:22:46.067Z,12.60
2018-09-14T05:24:50.801Z,12.60
2018-09-14T05:26:55.253Z,12.60
2018-09-14T05:29:05.782Z,12.60
2018-09-14T05:31:10.326Z,12.60
2018-09-14T05:33:17.733Z,12.60
2018-09-14T05:35:22.308Z,12.60
2018-09-14T05:37:26.751Z,12.60
2018-09-14T05:39:32.375Z,12.60
2018-09-14T05:41:38.698Z,12.60
2018-09-14T05:43:46.323Z,12.50
2018-09-14T05:45:55.209Z,12.50
2018-09-14T05:47:59.800Z,12.50
2018-09-14T05:50:06.523Z,12.50
2018-09-14T05:52:14.263Z,12.50
2018-09-14T05:54:21.010Z,12.50
2018-09-14T05:56:27.137Z,12.50
2018-09-14T05:58:36.293Z,12.40
2018-09-14T06:00:44.867Z,12.40
2018-09-14T06:02:57.552Z,12.40
2018-09-14T06:05:03.202Z,12.40
2018-09-14T06:07:07.667Z,12.40
2018-09-14T06:09:18.125Z,12.40
2018-09-14T06:11:24.333Z,12.30
2018-09-14T06:13:33.017Z,12.30
2018-09-14T06:15:41.065Z,12.30
2018-09-14T06:17:47.935Z,12.30
2018-09-14T06:19:54.074Z,12.30
2018-09-14T06:21:59.254Z,12.30
2018-09-14T06:24:05.327Z,12.30
2018-09-14T06:26:15.153Z,12.30
2018-09-14T06:28:20.377Z,12.30
2018-09-14T06:30:30.800Z,12.30
2018-09-14T06:32:39.987Z,12.30
2018-09-14T06:34:45.020Z,12.30
2018-09-14T06:36:52.117Z,12.30
2018-09-14T06:38:58.997Z,12.30
2018-09-14T06:41:04.826Z,12.30
2018-09-14T06:43:14.044Z,12.30
2018-09-14T06:45:24.089Z,12.30
2018-09-14T06:47:32.617Z,12.30
2018-09-14T06:49:42.600Z,12.30
2018-09-14T06:51:48.660Z,12.30
2018-09-14T06:53:56.523Z,12.30
2018-09-14T06:56:06.840Z,12.30
2018-09-14T06:58:15.342Z,12.40
2018-09-14T07:00:24.784Z,12.40
2018-09-14T07:02:32.649Z,12.40
2018-09-14T07:04:41.277Z,12.50
2018-09-14T07:06:51.078Z,12.50
2018-09-14T07:08:58.227Z,12.50
2018-09-14T07:11:05.212Z,12.60
2018-09-14T07:13:12.968Z,12.60
2018-09-14T07:15:21.396Z,12.70
2018-09-14T07:17:28.562Z,12.70
2018-09-14T07:19:33.188Z,12.80
2018-09-14T07:21:43.044Z,12.80
2018-09-14T07:23:52.274Z,12.90
2018-09-14T07:26:00.097Z,12.90
2018-09-14T07:28:09.455Z,13.00
2018-09-14T07:30:16.582Z,13.10
2018-09-14T07:32:24.532Z,13.20
2018-09-14T07:34:31.063Z,13.20
2018-09-14T07:36:38.343Z,13.30
2018-09-14T07:38:45.661Z,13.40
2018-09-14T07:40:51.272Z,13.50
2018-09-14T07:42:56.156Z,13.50
2018-09-14T07:45:03.471Z,13.70
2018-09-14T07:47:11.042Z,13.70
2018-09-14T07:49:18.021Z,13.80
2018-09-14T07:51:27.435Z,13.90
2018-09-14T07:53:34.107Z,14.00
2018-09-14T07:55:40.107Z,14.10
2018-09-14T07:57:46.634Z,14.30
2018-09-14T07:59:53.829Z,14.40
2018-09-14T08:01:58.685Z,14.50
2018-09-14T08:04:03.820Z,14.60
2018-09-14T08:06:10.631Z,14.70
2018-09-14T08:08:15.379Z,14.80
2018-09-14T08:10:21.804Z,14.90
2018-09-14T08:12:26.459Z,15.00
2018-09-14T08:14:30.913Z,15.20
2018-09-14T08:16:38.294Z,15.30
2018-09-14T08:18:42.926Z,15.40
2018-09-14T08:20:50.907Z,15.50
2018-09-14T08:22:57.953Z,15.70
2018-09-14T08:25:06.089Z,15.80
2018-09-14T08:27:13.975Z,15.90
2018-09-14T08:29:21.978Z,16.00
2018-09-14T08:31:29.817Z,16.10
2018-09-14T08:33:36.992Z,16.30
2018-09-14T08:35:43.607Z,16.40
2018-09-14T08:37:49.763Z,16.50
2018-09-14T08:39:58.391Z,16.60
2018-09-14T08:42:03.037Z,16.70
2018-09-14T08:44:09.467Z,16.90
2018-09-14T08:46:16.591Z,17.00
2018-09-14T08:48:24.377Z,17.10
2018-09-14T08:50:28.933Z,17.30
2018-09-14T08:52:36.581Z,17.40
2018-09-14T08:54:43.685Z,17.60
2018-09-14T08:56:50.887Z,17.70
2018-09-14T08:58:57.459Z,17.90
2018-09-14T09:01:02.141Z,18.00
2018-09-14T09:03:08.604Z,18.20
2018-09-14T09:05:14.991Z,18.30
2018-09-14T09:07:19.731Z,18.50
2018-09-14T09:09:24.186Z,18.60
2018-09-14T09:11:34.139Z,18.70
2018-09-14T09:13:41.862Z,18.90
2018-09-14T09:15:51.668Z,19.00
2018-09-14T09:17:58.659Z,19.20
2018-09-14T09:20:05.015Z,19.20
2018-09-14T09:22:11.621Z,19.40
2018-09-14T09:24:17.058Z,19.50
2018-09-14T09:26:24.063Z,19.60
2018-09-14T09:28:32.425Z,19.70
2018-09-14T09:30:40.412Z,19.70
2018-09-14T09:32:48.745Z,19.80
2018-09-14T09:34:56.539Z,19.90
2018-09-14T09:37:06.523Z,19.90
2018-09-14T09:39:12.531Z,20.00
2018-09-14T09:41:24.351Z,20.10
2018-09-14T09:43:32.558Z,20.20
2018-09-14T09:45:41.278Z,20.30
2018-09-14T09:47:51.883Z,20.30
2018-09-14T09:49:58.658Z,20.30
2018-09-14T09:52:06.549Z,20.40
2018-09-14T09:54:15.225Z,20.40
2018-09-14T09:56:23.941Z,20.40
2018-09-14T09:58:33.448Z,20.50
2018-09-14T10:00:48.070Z,20.50
2018-09-14T10:02:59.306Z,20.50
2018-09-14T10:05:10.124Z,20.50
2018-09-14T10:07:20.347Z,20.50
2018-09-14T10:09:24.783Z,20.50
2018-09-14T10:11:29.461Z,20.50
2018-09-14T10:13:34.289Z,20.50
2018-09-14T10:15:38.855Z,20.50
2018-09-14T10:17:43.314Z,20.60
2018-09-14T10:19:47.859Z,20.60
2018-09-14T10:21:52.427Z,20.70
2018-09-14T10:23:56.800Z,20.80
2018-09-14T10:26:04.932Z,20.80
2018-09-14T10:28:09.451Z,21.00
2018-09-14T10:30:13.889Z,21.10
2018-09-14T10:32:18.541Z,21.20
2018-09-14T10:34:22.988Z,21.30
2018-09-14T10:36:27.532Z,21.30
2018-09-14T10:38:32.234Z,21.40
2018-09-14T10:40:42.737Z,21.50
2018-09-14T10:42:50.040Z,21.50
2018-09-14T10:45:00.392Z,21.60
2018-09-14T10:47:10.433Z,21.70
2018-09-14T10:49:19.097Z,21.70
2018-09-14T10:51:24.963Z,21.70
2018-09-14T10:53:33.907Z,21.70
2018-09-14T10:55:42.485Z,21.70
2018-09-14T10:57:49.831Z,21.70
2018-09-14T10:59:58.078Z,21.80
2018-09-14T11:02:08.312Z,21.80
2018-09-14T11:04:18.790Z,21.90
2018-09-14T11:06:25.765Z,22.00
2018-09-14T11:08:33.915Z,22.10
2018-09-14T11:10:42.525Z,22.20
2018-09-14T11:12:49.756Z,22.30
2018-09-14T11:14:54.299Z,22.40
2018-09-14T11:16:58.944Z,22.50
2018-09-14T11:19:03.989Z,22.60
2018-09-14T11:21:08.476Z,22.70
2018-09-14T11:23:12.931Z,22.90
2018-09-14T11:25:17.482Z,22.90
2018-09-14T11:27:23.176Z,23.00
2018-09-14T11:29:27.610Z,23.20
2018-09-14T11:31:32.037Z,23.30
2018-09-14T11:33:36.488Z,23.30
2018-09-14T11:35:41.017Z,23.40
2018-09-14T11:37:47.560Z,23.40
2018-09-14T11:39:52.911Z,23.50
2018-09-14T11:41:57.364Z,23.60
2018-09-14T11:44:01.810Z,23.60
2018-09-14T11:46:06.288Z,23.70
2018-09-14T11:48:19.566Z,23.70
2018-09-14T11:50:26.564Z,23.70
2018-09-14T11:52:37.320Z,23.80
2018-09-14T11:54:41.903Z,23.70
2018-09-14T11:56:49.668Z,23.70
2018-09-14T11:59:00.132Z,23.70
2018-09-14T12:01:08.176Z,23.70
2018-09-14T12:03:17.776Z,23.60
2018-09-14T12:05:26.620Z,23.60
2018-09-14T12:07:41.341Z,23.50
2018-09-14T12:09:50.645Z,23.50
2018-09-14T12:11:58.160Z,23.50
2018-09-14T12:14:07.792Z,23.40
2018-09-14T12:16:17.515Z,23.50
2018-09-14T12:18:27.643Z,23.40
2018-09-14T12:20:37.668Z,23.40
2018-09-14T12:22:45.232Z,23.40
2018-09-14T12:24:56.623Z,23.40
2018-09-14T12:27:05.797Z,23.40
2018-09-14T12:29:15.197Z,23.40
2018-09-14T12:31:19.791Z,23.40
2018-09-14T12:33:27.335Z,23.50
2018-09-14T12:35:33.925Z,23.50
2018-09-14T12:37:43.658Z,23.50
2018-09-14T12:39:54.161Z,23.50
2018-09-14T12:42:00.602Z,23.60
2018-09-14T12:44:11.648Z,23.70
2018-09-14T12:46:20.399Z,23.70
2018-09-14T12:48:28.134Z,23.80
2018-09-14T12:50:34.878Z,23.80
2018-09-14T12:52:44.755Z,23.90
2018-09-14T12:54:56.168Z,23.90
2018-09-14T12:57:04.762Z,24.00
2018-09-14T12:59:14.814Z,24.00
2018-09-14T13:01:20.701Z,24.00
2018-09-14T13:03:30.616Z,24.10
2018-09-14T13:05:37.478Z,24.10
2018-09-14T13:07:44.746Z,24.00
2018-09-14T13:09:54.862Z,24.00
2018-09-14T13:12:03.026Z,24.00
2018-09-14T13:14:12.446Z,24.10
2018-09-14T13:16:20.092Z,24.10
2018-09-14T13:18:28.140Z,24.10
2018-09-14T13:20:35.482Z,24.10
2018-09-14T13:22:43.590Z,24.00
2018-09-14T13:24:49.622Z,24.00
2018-09-14T13:27:01.234Z,24.00
2018-09-14T13:29:11.318Z,23.90
2018-09-14T13:31:22.507Z,23.90
2018-09-14T13:33:32.087Z,23.90
2018-09-14T13:35:42.347Z,23.90
2018-09-14T13:37:51.062Z,23.90
2018-09-14T13:40:00.910Z,23.90
2018-09-14T13:42:12.067Z,23.90
2018-09-14T13:44:19.890Z,23.90
2018-09-14T13:46:30.109Z,23.80
2018-09-14T13:48:34.703Z,23.80
2018-09-14T13:50:42.278Z,23.80
2018-09-14T13:52:52.622Z,23.80
2018-09-14T13:55:00.516Z,23.80
2018-09-14T13:57:10.147Z,23.80
2018-09-14T13:59:20.421Z,23.80
2018-09-14T14:01:30.775Z,23.80
2018-09-14T14:03:36.682Z,23.70
2018-09-14T14:05:43.227Z,23.80
2018-09-14T14:07:50.220Z,23.70
2018-09-14T14:09:56.463Z,23.70
2018-09-14T14:12:02.725Z,23.80
2018-09-14T14:14:12.330Z,23.80
2018-09-14T14:16:20.782Z,23.70
2018-09-14T14:18:29.483Z,23.70
2018-09-14T14:20:36.761Z,23.80
2018-09-14T14:22:45.277Z,23.80
2018-09-14T14:24:55.163Z,23.80
2018-09-14T14:27:05.049Z,23.90
2018-09-14T14:29:15.061Z,23.90
2018-09-14T14:31:20.589Z,23.90
2018-09-14T14:33:29.304Z,24.00
2018-09-14T14:35:36.942Z,24.00
2018-09-14T14:37:42.305Z,24.00
2018-09-14T14:39:48.444Z,24.00
2018-09-14T14:41:56.330Z,24.00
2018-09-14T14:44:02.918Z,23.90
2018-09-14T14:46:08.355Z,23.90
2018-09-14T14:48:15.518Z,23.90
2018-09-14T14:50:22.034Z,23.90
2018-09-14T14:52:29.333Z,23.90
2018-09-14T14:54:37.776Z,23.90
2018-09-14T14:56:43.595Z,23.90
2018-09-14T14:58:49.961Z,23.90
2018-09-14T15:00:56.638Z,23.90
2018-09-14T15:03:06.115Z,24.00
2018-09-14T15:05:12.431Z,24.00
2018-09-14T15:07:17.620Z,24.00
2018-09-14T15:09:24.321Z,24.10
2018-09-14T15:11:33.188Z,24.10
2018-09-14T15:13:39.734Z,24.10
2018-09-14T15:15:46.922Z,24.10
2018-09-14T15:17:53.141Z,24.20
2018-09-14T15:20:01.864Z,24.20
2018-09-14T15:22:08.859Z,24.20
2018-09-14T15:24:16.238Z,24.10
2018-09-14T15:26:24.904Z,24.20
2018-09-14T15:28:34.065Z,24.10
2018-09-14T15:30:40.721Z,24.10
2018-09-14T15:32:48.900Z,24.00
2018-09-14T15:34:57.450Z,24.00
2018-09-14T15:37:03.534Z,24.00
2018-09-14T15:39:13.226Z,23.90
2018-09-14T15:41:21.906Z,23.90
2018-09-14T15:43:30.766Z,23.90
2018-09-14T15:45:37.643Z,23.90
2018-09-14T15:47:45.587Z,23.80
2018-09-14T15:49:53.284Z,23.80
2018-09-14T15:52:04.248Z,23.80
2018-09-14T15:54:13.324Z,23.80
2018-09-14T15:56:24.231Z,23.80
2018-09-14T15:58:33.876Z,23.70
2018-09-14T16:00:43.886Z,23.70
2018-09-14T16:02:48.702Z,23.70
2018-09-14T16:04:57.846Z,23.60
2018-09-14T16:07:07.105Z,23.60
2018-09-14T16:09:16.148Z,23.50
2018-09-14T16:11:25.087Z,23.50
2018-09-14T16:13:31.172Z,23.50
2018-09-14T16:15:39.246Z,23.40
2018-09-14T16:17:45.738Z,23.30
2018-09-14T16:19:57.856Z,23.30
2018-09-14T16:22:06.485Z,23.30
2018-09-14T16:24:14.663Z,23.20
2018-09-14T16:26:24.081Z,23.20
2018-09-14T16:28:33.828Z,23.10
2018-09-14T16:30:42.425Z,23.10
2018-09-14T16:32:50.821Z,23.00
2018-09-14T16:34:59.779Z,23.00
2018-09-14T16:37:08.730Z,22.90
2018-09-14T16:39:16.585Z,22.90
2018-09-14T16:41:27.378Z,22.80
2018-09-14T16:43:38.010Z,22.80
2018-09-14T16:45:46.169Z,22.70
2018-09-14T16:47:54.369Z,22.70
2018-09-14T16:50:02.803Z,22.60
2018-09-14T16:52:11.146Z,22.60
2018-09-14T16:54:20.913Z,22.50
2018-09-14T16:56:31.342Z,22.40
2018-09-14T16:58:39.614Z,22.40
2018-09-14T17:00:48.641Z,22.30
2018-09-14T17:03:00.415Z,22.20
2018-09-14T17:05:10.183Z,22.10
2018-09-14T17:07:17.131Z,22.00
2018-09-14T17:09:26.170Z,22.00
2018-09-14T17:11:34.939Z,21.90
2018-09-14T17:13:43.327Z,21.80
2018-09-14T17:15:52.972Z,21.70
2018-09-14T17:17:58.508Z,21.60
2018-09-14T17:20:09.165Z,21.50
2018-09-14T17:22:18.331Z,21.50
2018-09-14T17:24:25.017Z,21.40
2018-09-14T17:26:34.945Z,21.30
2018-09-14T17:28:43.475Z,21.30
2018-09-14T17:30:50.474Z,21.20
2018-09-14T17:32:56.323Z,21.10
2018-09-14T17:35:03.555Z,21.00
2018-09-14T17:37:10.737Z,21.00
2018-09-14T17:39:20.553Z,20.90
2018-09-14T17:41:29.201Z,20.80
2018-09-14T17:43:36.579Z,20.80
2018-09-14T17:45:43.333Z,20.70
2018-09-14T17:47:53.427Z,20.60
2018-09-14T17:50:01.084Z,20.50
2018-09-14T17:52:10.766Z,20.50
2018-09-14T17:54:19.948Z,20.40
2018-09-14T17:56:27.109Z,20.30
2018-09-14T17:58:35.841Z,20.20
2018-09-14T18:00:46.501Z,20.10
2018-09-14T18:02:53.743Z,20.00
2018-09-14T18:05:01.851Z,20.00
2018-09-14T18:07:09.627Z,19.90
2018-09-14T18:09:19.338Z,19.80
2018-09-14T18:11:28.999Z,19.70
2018-09-14T18:13:37.323Z,19.70
2018-09-14T18:15:46.667Z,19.60
2018-09-14T18:17:54.268Z,19.60
2018-09-14T18:19:59.982Z,19.50
2018-09-14T18:22:09.039Z,19.40
2018-09-14T18:24:18.688Z,19.30
2018-09-14T18:26:26.587Z,19.20
2018-09-14T18:28:34.897Z,19.20
2018-09-14T18:30:41.622Z,19.10
2018-09-14T18:32:51.161Z,19.10
2018-09-14T18:35:00.961Z,19.00
2018-09-14T18:37:08.710Z,19.00
2018-09-14T18:39:17.923Z,18.90
2018-09-14T18:41:26.426Z,18.80
2018-09-14T18:43:35.032Z,18.80
2018-09-14T18:45:44.266Z,18.70
2018-09-14T18:47:49.284Z,18.60
2018-09-14T18:50:00.612Z,18.60
2018-09-14T18:52:08.280Z,18.50
2018-09-14T18:54:16.348Z,18.40
2018-09-14T18:56:25.079Z,18.40
2018-09-14T18:58:35.332Z,18.30
2018-09-14T19:00:43.649Z,18.30
2018-09-14T19:02:50.495Z,18.20
2018-09-14T19:04:58.537Z,18.10
2018-09-14T19:07:07.699Z,18.00
2018-09-14T19:09:17.339Z,18.00
2018-09-14T19:11:23.119Z,18.00
2018-09-14T19:13:32.590Z,17.90
2018-09-14T19:15:41.373Z,17.80
2018-09-14T19:17:55.627Z,17.80
2018-09-14T19:20:04.523Z,17.70
2018-09-14T19:22:15.301Z,17.60
2018-09-14T19:24:25.915Z,17.60
2018-09-14T19:26:35.610Z,17.60
2018-09-14T19:28:45.052Z,17.60
2018-09-14T19:30:54.388Z,17.50
2018-09-14T19:33:03.646Z,17.50
2018-09-14T19:35:11.506Z,17.40
2018-09-14T19:37:20.604Z,17.40
2018-09-14T19:39:30.442Z,17.40
2018-09-14T19:41:39.558Z,17.30
2018-09-14T19:43:47.094Z,17.30
2018-09-14T19:45:54.699Z,17.30
2018-09-14T19:48:02.165Z,17.20
2018-09-14T19:50:11.666Z,17.20
2018-09-14T19:52:19.512Z,17.30
2018-09-14T19:54:28.975Z,17.20
2018-09-14T19:56:38.760Z,17.10
2018-09-14T19:58:46.210Z,17.10
2018-09-14T20:00:55.905Z,17.10
2018-09-14T20:03:04.654Z,17.00
2018-09-14T20:05:09.311Z,17.00
2018-09-14T20:07:20.007Z,17.00
2018-09-14T20:09:30.923Z,17.00
2018-09-14T20:11:41.567Z,17.00
2018-09-14T20:13:51.965Z,17.00
2018-09-14T20:16:00.794Z,16.90
2018-09-14T20:18:08.899Z,16.90
2018-09-14T20:20:18.339Z,16.90
2018-09-14T20:22:26.479Z,16.90
2018-09-14T20:24:34.870Z,16.90
2018-09-14T20:26:41.822Z,16.80
2018-09-14T20:28:55.296Z,16.80
2018-09-14T20:31:01.511Z,16.80
2018-09-14T20:33:10.558Z,16.70
2018-09-14T20:35:19.278Z,16.70
2018-09-14T20:37:26.284Z,16.60
2018-09-14T20:39:33.982Z,16.60
2018-09-14T20:41:40.764Z,16.60
2018-09-14T20:43:50.343Z,16.50
2018-09-14T20:45:59.068Z,16.50
2018-09-14T20:48:09.008Z,16.50
2018-09-14T20:50:19.518Z,16.40
2018-09-14T20:52:28.560Z,16.40
2018-09-14T20:54:34.266Z,16.30
2018-09-14T20:56:41.575Z,16.30
2018-09-14T20:58:50.555Z,16.30
2018-09-14T21:01:01.046Z,16.20
2018-09-14T21:03:10.236Z,16.20
2018-09-14T21:05:16.521Z,16.10
2018-09-14T21:07:25.915Z,16.10
2018-09-14T21:09:36.271Z,16.10
2018-09-14T21:11:46.440Z,16.10
2018-09-14T21:13:56.559Z,16.00
2018-09-14T21:16:06.992Z,16.00
2018-09-14T21:18:15.147Z,15.90
2018-09-14T21:20:23.954Z,15.90
2018-09-14T21:22:35.160Z,15.80
2018-09-14T21:24:47.208Z,15.80
2018-09-14T21:26:57.796Z,15.80
2018-09-14T21:29:08.402Z,15.70
2018-09-14T21:31:16.774Z,15.70
2018-09-14T21:33:24.887Z,15.70
2018-09-14T21:35:36.316Z,15.60
2018-09-14T21:37:45.636Z,15.60
2018-09-14T21:39:53.770Z,15.60
2018-09-14T21:42:04.800Z,15.60
2018-09-14T21:44:11.958Z,15.60
2018-09-14T21:46:17.069Z,15.50
2018-09-14T21:48:21.676Z,15.50
2018-09-14T21:50:26.026Z,15.50
2018-09-14T21:52:30.543Z,15.50
2018-09-14T21:54:40.264Z,15.50
2018-09-14T21:56:47.338Z,15.50
2018-09-14T21:58:53.607Z,15.50
2018-09-14T22:01:03.546Z,15.50
2018-09-14T22:03:08.095Z,15.50
2018-09-14T22:05:13.024Z,15.50
2018-09-14T22:07:17.570Z,15.50
2018-09-14T22:09:21.999Z,15.50
2018-09-14T22:11:26.501Z,15.50
2018-09-14T22:13:31.130Z,15.50
2018-09-14T22:15:35.837Z,15.50
2018-09-14T22:17:42.262Z,15.50
2018-09-14T22:19:49.783Z,15.50
2018-09-14T22:21:57.804Z,15.50
2018-09-14T22:24:04.316Z,15.50
2018-09-14T22:26:15.772Z,15.50
2018-09-14T22:28:22.115Z,15.50
2018-09-14T22:30:32.447Z,15.50
2018-09-14T22:32:43.332Z,15.50
2018-09-14T22:34:51.837Z,15.50
2018-09-14T22:37:00.843Z,15.40
2018-09-14T22:39:12.853Z,15.40
2018-09-14T22:41:23.143Z,15.40
2018-09-14T22:43:31.525Z,15.40
2018-09-14T22:45:38.073Z,15.40
2018-09-14T22:47:49.365Z,15.40
2018-09-14T22:49:58.602Z,15.40
2018-09-14T22:52:05.955Z,15.40
2018-09-14T22:54:14.055Z,15.40
2018-09-14T22:56:24.106Z,15.40
2018-09-14T22:58:32.538Z,15.40
2018-09-14T23:00:43.455Z,15.30
2018-09-14T23:02:51.568Z,15.30
2018-09-14T23:04:58.022Z,15.30
2018-09-14T23:07:04.954Z,15.30
2018-09-14T23:09:12.795Z,15.30
2018-09-14T23:11:22.908Z,15.30
2018-09-14T23:13:29.537Z,15.30
2018-09-14T23:15:38.392Z,15.30
2018-09-14T23:17:45.051Z,15.30
2018-09-14T23:19:51.687Z,15.30
2018-09-14T23:21:59.347Z,15.30
2018-09-14T23:24:06.921Z,15.30
2018-09-14T23:26:15.454Z,15.30
2018-09-14T23:28:26.404Z,15.30
2018-09-14T23:30:33.252Z,15.30
2018-09-14T23:32:42.767Z,15.30
2018-09-14T23:34:49.685Z,15.30
2018-09-14T23:36:58.022Z,15.30
2018-09-14T23:39:09.441Z,15.30
2018-09-14T23:41:18.805Z,15.30
2018-09-14T23:43:28.095Z,15.30
2018-09-14T23:45:36.925Z,15.30
2018-09-14T23:47:42.214Z,15.20
2018-09-14T23:49:52.256Z,15.20
2018-09-14T23:51:58.705Z,15.20
2018-09-14T23:54:08.411Z,15.20
2018-09-14T23:56:15.364Z,15.20
2018-09-14T23:58:23.171Z,15.10
